Time;durP1;ratioP1;P1;durP2;ratioP2;P2;SDS_P1;SDS_P2;PMS_P1;PMS_P2;Temp;Humidity;BMP_temperature;BMP_pressure;BME280_temperature;BME280_humidity;BME280_pressure;Samples;Min_cycle;Max_cycle;Signal;HPM_P1;HPM_P2
2022/11/21 00:02:24;;;;;;;3.25;2.25;;;;;;;;;;5047000;28;20025;-86
2022/11/21 00:04:50;;;;;;;2.58;1.45;;;;;;;;;;5058670;28;20036;-90
2022/11/21 00:07:15;;;;;;;3.72;1.75;;;;;;;;;;5049036;28;20035;-88
2022/11/21 00:09:40;;;;;;;2.97;2.10;;;;;;;;;;5056154;28;20025;-87
2022/11/21 00:12:06;;;;;;;1.23;0.88;;;;;;;;;;5058083;28;20473;-88
2022/11/21 00:14:32;;;;;;;0.63;0.52;;;;;;;;;;5050876;28;20029;-89
2022/11/21 00:16:58;;;;;;;1.30;1.00;;;;;;;;;;5051495;28;20030;-88
2022/11/21 00:19:23;;;;;;;2.67;1.33;;;;;;;;;;5049888;28;20100;-88
2022/11/21 00:21:49;;;;;;;1.42;1.10;;;;;;;;;;5050249;28;20031;-87
2022/11/21 00:24:14;;;;;;;2.38;1.65;;;;;;;;;;5051525;28;20078;-87
2022/11/21 00:26:39;;;;;;;1.60;0.98;;;;;;;;;;5063919;28;20112;-87
2022/11/21 00:29:05;;;;;;;1.00;0.93;;;;;;;;;;5051883;28;20025;-86
2022/11/21 00:31:30;;;;;;;2.90;1.50;;;;;;;;;;5061308;28;20029;-88
2022/11/21 00:33:56;;;;;;;3.47;1.75;;;;;;;;;;5056686;28;20111;-87
2022/11/21 00:36:21;;;;;;;2.17;1.40;;;;;;;;;;5049624;28;20068;-87
2022/11/21 00:38:46;;;;;;;2.92;2.05;;;;;;;;;;5055526;28;20580;-87
2022/11/21 00:41:12;;;;;;;2.17;1.98;;;;;;;;;;5053133;28;20037;-85
2022/11/21 00:43:37;;;;;;;0.95;0.70;;;;;;;;;;5060619;28;20067;-88
2022/11/21 00:46:03;;;;;;;3.30;0.30;;;;;;;;;;5073610;28;20035;-87
2022/11/21 00:48:29;;;;;;;0.47;0.30;;;;;;;;;;5059981;28;20115;-89
2022/11/21 00:50:55;;;;;;;0.63;0.55;;;;;;;;;;5093018;28;20504;-89
2022/11/21 00:53:21;;;;;;;0.10;0.10;;;;;;;;;;5063024;28;20064;-87
2022/11/21 00:55:46;;;;;;;0.93;0.52;;;;;;;;;;5077775;28;20044;-88
2022/11/21 00:58:11;;;;;;;0.47;0.28;;;;;;;;;;5074136;28;20051;-87
2022/11/21 01:00:37;;;;;;;0.10;0.10;;;;;;;;;;5073403;28;20028;-88
2022/11/21 01:03:02;;;;;;;0.65;0.50;;;;;;;;;;5074933;28;20020;-87
2022/11/21 01:05:31;;;;;;;0.25;0.25;;;;;;;;;;5057093;28;20468;-87
2022/11/21 01:07:57;;;;;;;3.30;0.65;;;;;;;;;;5074374;28;20025;-84
2022/11/21 01:10:22;;;;;;;0.30;0.30;;;;;;;;;;5069052;28;20226;-86
2022/11/21 01:12:48;;;;;;;1.17;0.38;;;;;;;;;;5059838;28;20032;-86
2022/11/21 01:15:14;;;;;;;1.30;0.70;;;;;;;;;;5074205;28;20021;-86
2022/11/21 01:17:40;;;;;;;0.30;0.30;;;;;;;;;;5073904;28;20072;-86
2022/11/21 01:20:06;;;;;;;0.88;0.47;;;;;;;;;;5074040;28;20039;-87
2022/11/21 01:22:32;;;;;;;0.25;0.13;;;;;;;;;;5074240;28;20073;-85
2022/11/21 01:24:57;;;;;;;0.22;0.22;;;;;;;;;;5072802;28;20024;-87
2022/11/21 01:27:22;;;;;;;0.52;0.20;;;;;;;;;;5073934;28;20047;-84
2022/11/21 01:29:48;;;;;;;0.28;0.17;;;;;;;;;;5074056;28;20437;-87
2022/11/21 01:32:13;;;;;;;0.50;0.35;;;;;;;;;;5064121;28;20024;-83
2022/11/21 01:34:39;;;;;;;1.17;0.43;;;;;;;;;;5064990;28;20388;-82
2022/11/21 01:37:04;;;;;;;1.38;0.38;;;;;;;;;;5072583;28;20034;-86
2022/11/21 01:39:30;;;;;;;1.77;0.38;;;;;;;;;;5071295;28;20028;-84
2022/11/21 01:41:55;;;;;;;0.10;0.10;;;;;;;;;;5071794;28;20380;-83
2022/11/21 01:44:26;;;;;;;0.25;0.25;;;;;;;;;;5071903;28;20052;-85
2022/11/21 01:46:52;;;;;;;0.30;0.30;;;;;;;;;;5072221;28;20021;-89
2022/11/21 01:49:24;;;;;;;0.15;0.15;;;;;;;;;;5072378;28;20024;-85
2022/11/21 01:52:03;;;;;;;1.35;0.52;;;;;;;;;;5094933;28;20111;-85
2022/11/21 01:54:40;;;;;;;0.40;0.40;;;;;;;;;;5060672;28;20173;-86
2022/11/21 01:57:24;;;;;;;0.43;0.43;;;;;;;;;;5092431;28;20029;-84
2022/11/21 02:00:01;;;;;;;0.70;0.57;;;;;;;;;;5071452;28;20043;-89
2022/11/21 02:02:39;;;;;;;1.13;0.75;;;;;;;;;;5069243;28;20031;-85
2022/11/21 02:05:10;;;;;;;0.30;0.30;;;;;;;;;;5070506;28;20033;-87
2022/11/21 02:07:39;;;;;;;0.68;0.32;;;;;;;;;;5071539;28;20020;-85
2022/11/21 02:10:06;;;;;;;0.40;0.40;;;;;;;;;;5061986;28;20035;-84
2022/11/21 02:12:39;;;;;;;0.80;0.32;;;;;;;;;;5070932;28;20508;-84
2022/11/21 02:15:05;;;;;;;0.68;0.50;;;;;;;;;;5071325;28;20368;-89
2022/11/21 02:17:32;;;;;;;1.30;0.65;;;;;;;;;;5059740;28;20024;-88
2022/11/21 02:20:00;;;;;;;0.25;0.25;;;;;;;;;;5071975;28;20058;-85
2022/11/21 02:22:49;;;;;;;0.82;0.40;;;;;;;;;;5071412;28;20051;-86
2022/11/21 02:25:18;;;;;;;0.20;0.20;;;;;;;;;;5056541;28;20134;-85
2022/11/21 02:27:44;;;;;;;0.95;0.55;;;;;;;;;;5062531;28;20112;-87
2022/11/21 02:30:11;;;;;;;0.20;0.20;;;;;;;;;;5058976;28;20431;-84
2022/11/21 02:32:45;;;;;;;0.45;0.40;;;;;;;;;;5071276;28;20111;-84
2022/11/21 02:35:11;;;;;;;0.22;0.22;;;;;;;;;;5058308;28;20028;-89
2022/11/21 02:37:37;;;;;;;0.40;0.40;;;;;;;;;;5098409;28;20027;-88
2022/11/21 02:40:08;;;;;;;0.30;0.30;;;;;;;;;;5056942;28;20024;-85
2022/11/21 02:42:44;;;;;;;0.20;0.20;;;;;;;;;;5073385;28;20025;-85
2022/11/21 02:45:19;;;;;;;0.20;0.20;;;;;;;;;;5041277;28;20069;-89
2022/11/21 02:47:49;;;;;;;1.05;0.50;;;;;;;;;;5029438;28;20417;-90
2022/11/21 02:50:19;;;;;;;1.92;0.68;;;;;;;;;;5039400;28;20059;-85
2022/11/21 02:52:44;;;;;;;;;;;;;;;;;;5028837;28;20025;-86
2022/11/21 02:55:14;;;;;;;0.35;0.30;;;;;;;;;;5032234;28;20012;-88
2022/11/21 02:57:40;;;;;;;;;;;;;;;;;;5032762;28;20132;-87
2022/11/21 03:00:07;;;;;;;0.45;0.45;;;;;;;;;;5039165;28;19952;-86
2022/11/21 03:02:32;;;;;;;0.10;0.10;;;;;;;;;;5027278;28;20036;-86
2022/11/21 03:04:57;;;;;;;0.22;0.20;;;;;;;;;;5033381;28;20041;-89
2022/11/21 03:07:23;;;;;;;0.65;0.43;;;;;;;;;;5035895;28;20036;-87
2022/11/21 03:09:48;;;;;;;1.20;0.52;;;;;;;;;;5040533;28;20533;-86
2022/11/21 03:12:14;;;;;;;0.77;0.52;;;;;;;;;;5028044;28;20689;-87
2022/11/21 03:14:39;;;;;;;4.60;0.80;;;;;;;;;;5033998;28;20539;-84
2022/11/21 03:17:08;;;;;;;0.20;0.20;;;;;;;;;;5039549;28;20025;-85
2022/11/21 03:19:33;;;;;;;0.13;0.13;;;;;;;;;;5034970;28;20504;-90
2022/11/21 03:21:58;;;;;;;0.30;0.20;;;;;;;;;;5035750;28;20029;-85
2022/11/21 03:24:24;;;;;;;0.60;0.60;;;;;;;;;;5044365;28;20041;-87
2022/11/21 03:26:49;;;;;;;0.75;0.65;;;;;;;;;;5033921;28;20033;-86
2022/11/21 03:29:15;;;;;;;0.43;0.32;;;;;;;;;;5040309;28;20036;-86
2022/11/21 03:31:40;;;;;;;0.68;0.45;;;;;;;;;;5042835;28;20028;-87
2022/11/21 03:34:06;;;;;;;0.50;0.50;;;;;;;;;;5043499;28;20405;-88
2022/11/21 03:36:31;;;;;;;0.60;0.60;;;;;;;;;;5028585;28;20057;-84
2022/11/21 03:38:57;;;;;;;2.78;0.40;;;;;;;;;;5032669;28;20030;-87
2022/11/21 03:41:29;;;;;;;7.47;1.27;;;;;;;;;;5034844;28;20478;-84
2022/11/21 03:44:06;;;;;;;0.20;0.20;;;;;;;;;;5038550;28;20496;-85
2022/11/21 03:46:35;;;;;;;0.22;0.22;;;;;;;;;;5068292;28;20111;-86
2022/11/21 03:49:01;;;;;;;0.17;0.17;;;;;;;;;;5056047;28;20039;-87
2022/11/21 03:51:27;;;;;;;1.08;0.47;;;;;;;;;;5062570;28;20033;-87
2022/11/21 03:53:52;;;;;;;0.20;0.20;;;;;;;;;;5058992;28;20112;-86
2022/11/21 03:56:19;;;;;;;1.85;0.55;;;;;;;;;;5051411;28;20024;-84
2022/11/21 03:58:45;;;;;;;0.32;0.32;;;;;;;;;;5047462;28;20021;-88
2022/11/21 04:01:14;;;;;;;0.40;0.40;;;;;;;;;;5056286;28;20021;-91
2022/11/21 04:03:41;;;;;;;0.20;0.20;;;;;;;;;;5050124;28;20445;-84
2022/11/21 04:06:07;;;;;;;0.50;0.47;;;;;;;;;;5046496;28;20037;-87
2022/11/21 04:08:32;;;;;;;2.80;0.55;;;;;;;;;;5054647;28;20025;-85
2022/11/21 04:10:58;;;;;;;0.40;0.40;;;;;;;;;;5054654;28;20086;-86
2022/11/21 04:13:23;;;;;;;1.65;0.32;;;;;;;;;;5070123;28;20072;-89
2022/11/21 04:15:49;;;;;;;1.23;0.63;;;;;;;;;;5054933;28;20027;-84
2022/11/21 04:18:16;;;;;;;6.43;0.57;;;;;;;;;;5054600;28;20029;-83
2022/11/21 04:20:42;;;;;;;0.55;0.32;;;;;;;;;;5058570;28;20161;-83
2022/11/21 04:23:07;;;;;;;0.30;0.30;;;;;;;;;;5052298;28;20075;-87
2022/11/21 04:25:33;;;;;;;6.65;3.75;;;;;;;;;;5052430;28;20040;-88
2022/11/21 04:27:59;;;;;;;3.53;1.08;;;;;;;;;;5052387;28;20374;-83
2022/11/21 04:30:26;;;;;;;1.98;0.52;;;;;;;;;;5059805;28;20033;-85
2022/11/21 04:32:52;;;;;;;0.73;0.65;;;;;;;;;;5051138;28;20469;-85
2022/11/21 04:35:17;;;;;;;0.50;0.45;;;;;;;;;;5052453;28;20025;-84
2022/11/21 04:37:43;;;;;;;0.55;0.40;;;;;;;;;;5063170;28;20074;-85
2022/11/21 04:40:09;;;;;;;7.93;0.43;;;;;;;;;;5046205;28;20465;-84
2022/11/21 04:42:35;;;;;;;0.30;0.30;;;;;;;;;;5051689;28;20135;-85
2022/11/21 04:45:00;;;;;;;3.17;0.65;;;;;;;;;;5066637;28;20119;-84
2022/11/21 04:47:26;;;;;;;0.40;0.40;;;;;;;;;;5073319;28;20025;-86
2022/11/21 04:49:51;;;;;;;0.10;0.10;;;;;;;;;;5072234;28;20032;-85
2022/11/21 04:52:16;;;;;;;0.80;0.32;;;;;;;;;;5073075;28;20035;-85
2022/11/21 04:54:42;;;;;;;0.20;0.20;;;;;;;;;;5061099;28;20061;-83
2022/11/21 04:57:07;;;;;;;3.30;0.30;;;;;;;;;;5072957;28;20051;-81
2022/11/21 04:59:32;;;;;;;0.10;0.10;;;;;;;;;;5064786;28;20028;-86
2022/11/21 05:01:58;;;;;;;0.10;0.10;;;;;;;;;;5072298;28;20028;-81
2022/11/21 05:04:23;;;;;;;0.25;0.20;;;;;;;;;;5072637;28;20099;-81
2022/11/21 05:06:49;;;;;;;0.30;0.30;;;;;;;;;;5072333;28;20021;-83
2022/11/21 05:09:14;;;;;;;1.27;0.65;;;;;;;;;;5071459;28;20090;-85
2022/11/21 05:14:25;;;;;;;4.30;0.63;;;;;;;;;;5071714;28;20030;-82
2022/11/21 05:16:51;;;;;;;0.40;0.40;;;;;;;;;;5072092;28;20025;-83
2022/11/21 05:19:16;;;;;;;0.95;0.47;;;;;;;;;;5070761;28;20031;-83
2022/11/21 05:21:42;;;;;;;0.50;0.50;;;;;;;;;;5072201;28;20365;-83
2022/11/21 05:24:07;;;;;;;0.47;0.47;;;;;;;;;;5071442;28;20028;-84
2022/11/21 05:26:33;;;;;;;0.98;0.63;;;;;;;;;;5059969;28;20051;-83
2022/11/21 05:28:58;;;;;;;0.57;0.55;;;;;;;;;;5071420;28;20020;-83
2022/11/21 05:31:24;;;;;;;1.73;0.70;;;;;;;;;;5059635;28;20036;-84
2022/11/21 05:33:49;;;;;;;3.53;0.95;;;;;;;;;;5072009;28;20020;-83
2022/11/21 05:36:14;;;;;;;0.55;0.40;;;;;;;;;;5071680;28;20031;-83
2022/11/21 05:38:40;;;;;;;0.38;0.38;;;;;;;;;;5057123;28;20421;-83
2022/11/21 05:41:05;;;;;;;0.40;0.40;;;;;;;;;;5071904;28;20055;-83
2022/11/21 05:43:46;;;;;;;2.05;0.55;;;;;;;;;;5071857;28;20492;-85
2022/11/21 05:46:16;;;;;;;0.35;0.35;;;;;;;;;;5068190;28;20107;-83
2022/11/21 05:48:42;;;;;;;0.73;0.63;;;;;;;;;;5069390;28;20029;-83
2022/11/21 05:51:07;;;;;;;1.13;0.90;;;;;;;;;;5071616;28;20109;-84
2022/11/21 05:53:33;;;;;;;4.00;0.50;;;;;;;;;;5071935;28;20032;-85
2022/11/21 05:56:04;;;;;;;0.90;0.45;;;;;;;;;;5071844;28;20468;-83
2022/11/21 05:58:29;;;;;;;0.55;0.45;;;;;;;;;;5061135;28;20528;-86
2022/11/21 06:00:57;;;;;;;2.38;1.20;;;;;;;;;;5068582;28;20063;-83
2022/11/21 06:03:25;;;;;;;0.38;0.25;;;;;;;;;;5060293;28;20090;-82
2022/11/21 06:06:12;;;;;;;1.23;0.35;;;;;;;;;;5071491;28;20039;-83
2022/11/21 06:08:42;;;;;;;1.05;0.82;;;;;;;;;;5068257;28;20115;-86
2022/11/21 06:11:10;;;;;;;0.20;0.20;;;;;;;;;;5068906;28;20082;-83
2022/11/21 06:13:36;;;;;;;2.95;0.80;;;;;;;;;;5055049;28;20386;-86
2022/11/21 06:16:14;;;;;;;0.57;0.50;;;;;;;;;;5059310;28;20028;-84
2022/11/21 06:18:42;;;;;;;1.38;0.60;;;;;;;;;;5055785;28;20051;-83
2022/11/21 06:21:12;;;;;;;0.47;0.38;;;;;;;;;;5071329;28;20074;-85
2022/11/21 06:23:37;;;;;;;0.85;0.45;;;;;;;;;;5058959;28;20391;-84
2022/11/21 06:26:06;;;;;;;0.63;0.55;;;;;;;;;;5061751;28;20036;-84
2022/11/21 06:28:34;;;;;;;0.45;0.45;;;;;;;;;;5071260;28;20398;-83
2022/11/21 06:31:10;;;;;;;1.45;0.75;;;;;;;;;;5070894;28;20024;-82
2022/11/21 06:33:36;;;;;;;0.40;0.40;;;;;;;;;;5067365;28;20024;-85
2022/11/21 06:36:16;;;;;;;0.30;0.30;;;;;;;;;;5070832;28;20477;-85
2022/11/21 06:38:42;;;;;;;1.65;0.57;;;;;;;;;;5061945;28;20519;-84
2022/11/21 06:41:19;;;;;;;0.88;0.70;;;;;;;;;;5075239;28;20101;-88
2022/11/21 06:43:45;;;;;;;0.40;0.40;;;;;;;;;;5093153;28;20040;-87
2022/11/21 06:46:11;;;;;;;0.63;0.63;;;;;;;;;;5058063;28;20025;-85
2022/11/21 06:48:38;;;;;;;0.28;0.28;;;;;;;;;;5095101;28;20029;-87
2022/11/21 06:51:11;;;;;;;0.63;0.43;;;;;;;;;;5075203;28;20395;-87
2022/11/21 06:53:36;;;;;;;0.32;0.32;;;;;;;;;;5065847;28;20029;-91
2022/11/21 06:56:03;;;;;;;4.03;0.55;;;;;;;;;;5059226;28;20123;-86
2022/11/21 06:58:28;;;;;;;1.08;0.68;;;;;;;;;;5075364;28;20097;-86
2022/11/21 07:00:54;;;;;;;0.40;0.40;;;;;;;;;;5075208;28;20107;-88
2022/11/21 07:03:21;;;;;;;0.28;0.28;;;;;;;;;;5074975;28;20024;-87
2022/11/21 07:05:46;;;;;;;0.75;0.57;;;;;;;;;;5062566;28;20029;-89
2022/11/21 07:08:12;;;;;;;0.30;0.30;;;;;;;;;;5076818;28;20380;-89
2022/11/21 07:10:37;;;;;;;0.40;0.30;;;;;;;;;;5066452;28;20048;-88
2022/11/21 07:13:21;;;;;;;0.88;0.68;;;;;;;;;;5063008;28;20077;-87
2022/11/21 07:15:49;;;;;;;3.05;1.70;;;;;;;;;;5076831;28;20024;-87
2022/11/21 07:18:14;;;;;;;1.48;0.98;;;;;;;;;;5076916;28;20058;-91
2022/11/21 07:20:42;;;;;;;0.70;0.70;;;;;;;;;;5059789;28;20495;-85
2022/11/21 07:23:07;;;;;;;0.63;0.45;;;;;;;;;;5072082;28;20025;-88
2022/11/21 07:25:33;;;;;;;0.63;0.63;;;;;;;;;;5074032;28;20032;-86
2022/11/21 07:28:03;;;;;;;0.95;0.38;;;;;;;;;;5074949;28;20036;-90
2022/11/21 07:30:28;;;;;;;0.40;0.40;;;;;;;;;;5062881;28;20510;-90
2022/11/21 07:36:35;;;;;;;1.05;0.63;;;;;;;;;;5061513;28;20060;-90
2022/11/21 07:43:15;;;;;;;;;;;;;;;;;;;;;
2022/11/21 07:46:03;;;;;;;1.20;1.10;;;;;;;;;;5066342;28;20404;-88
2022/11/21 07:49:41;;;;;;;;;;;;;;;;;;;;;
2022/11/21 07:52:17;;;;;;;1.13;0.70;;;;;;;;;;5035327;28;20042;-86
2022/11/21 07:55:24;;;;;;;1.00;0.50;;;;;;;;;;5066569;28;20149;-89
2022/11/21 07:57:59;;;;;;;9.07;1.05;;;;;;;;;;5064299;28;20032;-87
2022/11/21 08:04:15;;;;;;;0.55;0.47;;;;;;;;;;5040575;28;20090;-85
2022/11/21 08:07:08;;;;;;;1.60;1.50;;;;;;;;;;5055059;28;20122;-88
2022/11/21 08:09:49;;;;;;;3.67;1.95;;;;;;;;;;5069063;28;20492;-88
2022/11/21 08:12:25;;;;;;;0.80;0.63;;;;;;;;;;5051677;28;20028;-88
2022/11/21 08:14:57;;;;;;;1.15;1.05;;;;;;;;;;5055929;28;20040;-87
2022/11/21 08:17:28;;;;;;;0.88;0.73;;;;;;;;;;5068669;28;20036;-83
2022/11/21 08:19:54;;;;;;;0.90;0.85;;;;;;;;;;5049407;28;20043;-84
2022/11/21 08:22:19;;;;;;;0.30;0.30;;;;;;;;;;5051974;28;20029;-85
2022/11/21 08:24:46;;;;;;;2.30;1.52;;;;;;;;;;5092203;28;20082;-87
2022/11/21 08:27:12;;;;;;;4.40;2.38;;;;;;;;;;5064510;28;20027;-87
2022/11/21 08:29:37;;;;;;;3.65;2.40;;;;;;;;;;5063849;28;20032;-84
2022/11/21 08:32:03;;;;;;;2.55;2.22;;;;;;;;;;5072071;28;20035;-87
2022/11/21 08:37:34;;;;;;;1.48;1.38;;;;;;;;;;5069969;28;20032;-87
2022/11/21 08:40:02;;;;;;;2.15;1.30;;;;;;;;;;5073535;28;20055;-87
2022/11/21 08:42:27;;;;;;;1.80;1.20;;;;;;;;;;5062246;28;20024;-85
2022/11/21 08:45:01;;;;;;;8.57;4.85;;;;;;;;;;5055511;28;20399;-86
2022/11/21 08:47:27;;;;;;;5.47;3.05;;;;;;;;;;5065649;28;20098;-84
2022/11/21 08:49:54;;;;;;;4.32;2.72;;;;;;;;;;5061664;28;20500;-85
2022/11/21 08:52:20;;;;;;;3.92;2.72;;;;;;;;;;5072331;28;20059;-84
2022/11/21 08:54:45;;;;;;;10.30;4.13;;;;;;;;;;5056797;28;20045;-84
2022/11/21 08:57:11;;;;;;;3.45;2.08;;;;;;;;;;5059143;28;20025;-87
2022/11/21 08:59:36;;;;;;;3.92;1.90;;;;;;;;;;5072357;28;20099;-85
2022/11/21 09:02:02;;;;;;;2.13;1.48;;;;;;;;;;5072357;28;20108;-87
2022/11/21 09:04:27;;;;;;;1.50;0.90;;;;;;;;;;5072774;28;20357;-87
2022/11/21 09:06:53;;;;;;;0.57;0.57;;;;;;;;;;5052960;28;20048;-91
2022/11/21 09:09:18;;;;;;;0.40;0.40;;;;;;;;;;5058302;28;20100;-88
2022/11/21 09:11:43;;;;;;;1.45;0.80;;;;;;;;;;5072844;28;20024;-88
2022/11/21 09:19:37;;;;;;;0.55;0.55;;;;;;;;;;5072541;28;20078;-88
2022/11/21 09:22:02;;;;;;;1.05;0.95;;;;;;;;;;5059699;28;20036;-87
2022/11/21 09:24:28;;;;;;;0.65;0.65;;;;;;;;;;5069997;28;20078;-87
2022/11/21 09:26:53;;;;;;;0.95;0.95;;;;;;;;;;5072326;28;20104;-88
2022/11/21 09:29:18;;;;;;;2.05;1.40;;;;;;;;;;5072293;28;20028;-89
2022/11/21 09:31:44;;;;;;;8.23;5.28;;;;;;;;;;5057621;28;20426;-89
2022/11/21 09:34:10;;;;;;;6.88;1.95;;;;;;;;;;5072156;28;20021;-87
2022/11/21 09:36:36;;;;;;;1.27;0.80;;;;;;;;;;5055391;28;20078;-87
2022/11/21 09:39:02;;;;;;;1.35;1.25;;;;;;;;;;5055076;28;20031;-89
2022/11/21 09:41:50;;;;;;;1.20;1.10;;;;;;;;;;5057189;28;20028;-88
2022/11/21 09:44:29;;;;;;;0.88;0.85;;;;;;;;;;5050998;28;20079;-85
2022/11/21 09:47:03;;;;;;;2.55;1.20;;;;;;;;;;5046984;28;20085;-89
2022/11/21 09:49:32;;;;;;;1.42;1.02;;;;;;;;;;5043604;28;20040;-86
2022/11/21 09:51:59;;;;;;;2.00;1.58;;;;;;;;;;5047594;28;20492;-89
2022/11/21 09:54:31;;;;;;;2.60;1.40;;;;;;;;;;5050651;28;20056;-88
2022/11/21 09:56:56;;;;;;;1.65;1.55;;;;;;;;;;5051659;28;20388;-86
2022/11/21 09:59:33;;;;;;;2.10;1.17;;;;;;;;;;5043336;28;20037;-87
2022/11/21 10:01:58;;;;;;;3.25;1.48;;;;;;;;;;5047459;28;20029;-87
2022/11/21 10:04:25;;;;;;;1.95;0.98;;;;;;;;;;5049224;28;20056;-88
2022/11/21 10:07:04;;;;;;;1.05;0.95;;;;;;;;;;5061605;28;20032;-88
2022/11/21 10:09:51;;;;;;;1.73;1.30;;;;;;;;;;5053944;28;20081;-87
2022/11/21 10:12:36;;;;;;;0.70;0.70;;;;;;;;;;5053340;28;20098;-86
2022/11/21 10:15:19;;;;;;;2.20;1.38;;;;;;;;;;5056015;28;20512;-87
2022/11/21 10:18:03;;;;;;;0.77;0.77;;;;;;;;;;5080728;28;20021;-86
2022/11/21 10:20:34;;;;;;;3.60;1.48;;;;;;;;;;5048672;28;20101;-86
2022/11/21 10:23:32;;;;;;;1.20;1.13;;;;;;;;;;5050199;28;20053;-86
2022/11/21 10:26:18;;;;;;;1.80;1.38;;;;;;;;;;5049533;28;20029;-85
2022/11/21 10:29:01;;;;;;;1.63;1.30;;;;;;;;;;5026040;28;20521;-85
2022/11/21 10:31:34;;;;;;;2.00;1.65;;;;;;;;;;5058104;28;20104;-85
2022/11/21 10:34:02;;;;;;;2.08;1.77;;;;;;;;;;5052599;28;20039;-85
2022/11/21 10:36:36;;;;;;;0.70;0.70;;;;;;;;;;5053917;28;20476;-84
2022/11/21 10:39:13;;;;;;;1.08;0.95;;;;;;;;;;5047576;28;20483;-86
2022/11/21 10:42:05;;;;;;;1.17;1.00;;;;;;;;;;5050694;28;20017;-86
2022/11/21 10:47:26;;;;;;;1.17;1.05;;;;;;;;;;5067403;28;20046;-85
2022/11/21 10:50:06;;;;;;;1.05;1.02;;;;;;;;;;5068805;28;20071;-87
2022/11/21 10:52:35;;;;;;;2.67;1.88;;;;;;;;;;5085557;28;20067;-86
2022/11/21 10:55:03;;;;;;;1.33;1.10;;;;;;;;;;5065701;28;20040;-84
2022/11/21 10:57:38;;;;;;;1.00;0.90;;;;;;;;;;5074228;28;20563;-83
2022/11/21 11:00:16;;;;;;;0.85;0.85;;;;;;;;;;5072438;28;20507;-85
2022/11/21 11:02:59;;;;;;;1.75;1.65;;;;;;;;;;5070362;28;20021;-84
2022/11/21 11:05:26;;;;;;;2.53;1.15;;;;;;;;;;5067733;28;20091;-87
2022/11/21 11:08:11;;;;;;;3.38;1.95;;;;;;;;;;5057572;28;20464;-85
2022/11/21 11:10:37;;;;;;;1.20;0.85;;;;;;;;;;5067435;28;20473;-83
2022/11/21 11:16:23;;;;;;;1.27;1.05;;;;;;;;;;5070265;28;20170;-83
2022/11/21 11:19:07;;;;;;;2.97;1.42;;;;;;;;;;5067316;28;20025;-84
2022/11/21 11:21:39;;;;;;;1.77;0.93;;;;;;;;;;5070558;28;21545;-83
2022/11/21 11:24:28;;;;;;;0.80;0.80;;;;;;;;;;5067875;28;20024;-83
2022/11/21 11:27:01;;;;;;;1.33;0.95;;;;;;;;;;5072415;28;20024;-84
2022/11/21 11:29:29;;;;;;;1.52;1.42;;;;;;;;;;5073805;28;20106;-82
2022/11/21 11:31:55;;;;;;;1.58;1.10;;;;;;;;;;5061430;28;20171;-81
2022/11/21 11:34:20;;;;;;;1.77;1.33;;;;;;;;;;5073812;28;20134;-84
2022/11/21 11:36:50;;;;;;;1.67;0.90;;;;;;;;;;5064981;28;20025;-84
2022/11/21 11:39:18;;;;;;;1.40;1.27;;;;;;;;;;5073753;28;20150;-83
2022/11/21 11:47:54;;;;;;;0.82;0.75;;;;;;;;;;5074387;28;20036;-81
2022/11/21 11:50:25;;;;;;;3.20;1.67;;;;;;;;;;5057616;28;20032;-84
2022/11/21 11:53:12;;;;;;;1.45;1.35;;;;;;;;;;5060709;28;20024;-83
2022/11/21 11:55:43;;;;;;;2.67;1.77;;;;;;;;;;5065354;28;20104;-83
2022/11/21 11:58:18;;;;;;;1.92;1.17;;;;;;;;;;5093591;28;20025;-84
2022/11/21 12:01:10;;;;;;;4.38;1.88;;;;;;;;;;5062791;28;20160;-83
2022/11/21 12:03:58;;;;;;;4.65;2.35;;;;;;;;;;5053872;28;20493;-83
2022/11/21 12:06:28;;;;;;;3.65;1.98;;;;;;;;;;5069868;28;20404;-84
2022/11/21 12:09:13;;;;;;;2.17;1.40;;;;;;;;;;5073006;28;20095;-83
2022/11/21 12:12:18;;;;;;;1.52;1.23;;;;;;;;;;5069120;28;20052;-84
2022/11/21 12:17:46;;;;;;;1.75;1.50;;;;;;;;;;5048019;28;20414;-83
2022/11/21 12:20:22;;;;;;;3.45;2.42;;;;;;;;;;5073594;28;20061;-86
2022/11/21 12:22:50;;;;;;;1.33;1.23;;;;;;;;;;5072507;28;20082;-83
2022/11/21 12:25:20;;;;;;;2.58;1.75;;;;;;;;;;5072666;28;20029;-85
2022/11/21 12:27:49;;;;;;;;;;;;;;;;;;5071216;28;20105;-85
2022/11/21 12:30:38;;;;;;;5.78;3.08;;;;;;;;;;5073770;28;20030;-87
2022/11/21 12:33:11;;;;;;;5.50;2.92;;;;;;;;;;5070215;28;20562;-85
2022/11/21 12:35:43;;;;;;;2.92;2.13;;;;;;;;;;5070106;28;20029;-85
2022/11/21 12:38:40;;;;;;;4.80;2.50;;;;;;;;;;5092163;28;20024;-87
2022/11/21 12:44:42;;;;;;;7.50;3.20;;;;;;;;;;5069871;28;20055;-88
2022/11/21 12:56:44;;;;;;;1.70;1.23;;;;;;;;;;5072241;28;20106;-87
2022/11/21 12:59:13;;;;;;;0.77;0.75;;;;;;;;;;5091685;28;20032;-85
2022/11/21 13:02:16;;;;;;;3.95;2.95;;;;;;;;;;5072369;28;20418;-86
2022/11/21 13:04:45;;;;;;;9.52;2.85;;;;;;;;;;5069897;28;20036;-87
2022/11/21 13:07:11;;;;;;;1.65;1.33;;;;;;;;;;5072472;28;20052;-84
2022/11/21 13:09:44;;;;;;;1.80;1.25;;;;;;;;;;5071218;28;20035;-86
2022/11/21 13:12:18;;;;;;;2.45;1.42;;;;;;;;;;5061166;28;20082;-85
2022/11/21 13:14:50;;;;;;;2.33;1.63;;;;;;;;;;5062883;28;20055;-86
2022/11/21 13:17:24;;;;;;;2.60;1.77;;;;;;;;;;5072003;28;20048;-86
2022/11/21 13:20:18;;;;;;;2.33;1.60;;;;;;;;;;5072395;28;20031;-86
2022/11/21 13:22:43;;;;;;;3.55;1.85;;;;;;;;;;5063064;28;20024;-87
2022/11/21 13:25:13;;;;;;;2.50;1.48;;;;;;;;;;5072406;28;20036;-87
2022/11/21 13:27:43;;;;;;;2.75;1.65;;;;;;;;;;5071906;28;20476;-85
2022/11/21 13:30:11;;;;;;;9.70;1.73;;;;;;;;;;5071652;28;20806;-84
2022/11/21 13:32:40;;;;;;;2.85;1.45;;;;;;;;;;5057627;28;20516;-82
2022/11/21 13:35:15;;;;;;;1.67;1.58;;;;;;;;;;5071468;28;20028;-86
2022/11/21 13:38:03;;;;;;;2.10;1.73;;;;;;;;;;5071477;28;20032;-84
2022/11/21 13:40:28;;;;;;;0.73;0.73;;;;;;;;;;5068625;28;20095;-86
2022/11/21 13:43:16;;;;;;;1.80;1.38;;;;;;;;;;5066110;28;20031;-85
2022/11/21 13:45:48;;;;;;;3.00;2.13;;;;;;;;;;5070870;28;20111;-84
2022/11/21 13:48:35;;;;;;;7.22;2.33;;;;;;;;;;5071260;28;20020;-84
2022/11/21 13:51:36;;;;;;;2.30;1.58;;;;;;;;;;5058106;28;20475;-83
2022/11/21 13:54:04;;;;;;;0.52;0.52;;;;;;;;;;5074755;28;20036;-84
2022/11/21 13:56:33;;;;;;;1.88;1.50;;;;;;;;;;5071342;28;20032;-86
2022/11/21 13:59:08;;;;;;;2.83;1.95;;;;;;;;;;5071476;28;20024;-86
2022/11/21 14:01:57;;;;;;;1.83;1.50;;;;;;;;;;5071533;28;20563;-84
2022/11/21 14:04:45;;;;;;;2.25;2.00;;;;;;;;;;5056786;28;20051;-85
2022/11/21 14:07:22;;;;;;;3.10;1.83;;;;;;;;;;5071450;28;20047;-84
2022/11/21 14:09:50;;;;;;;3.35;2.28;;;;;;;;;;5062815;28;20021;-84
2022/11/21 14:12:23;;;;;;;2.47;2.25;;;;;;;;;;5071656;28;20464;-85
2022/11/21 14:15:21;;;;;;;3.33;2.03;;;;;;;;;;5072554;28;20472;-86
2022/11/21 14:17:49;;;;;;;1.45;1.35;;;;;;;;;;5030532;28;20052;-88
2022/11/21 14:20:20;;;;;;;2.78;2.47;;;;;;;;;;5059372;28;20116;-88
2022/11/21 14:23:02;;;;;;;3.10;2.25;;;;;;;;;;5057393;28;20473;-87
2022/11/21 14:25:39;;;;;;;3.00;2.10;;;;;;;;;;5057022;28;20021;-88
2022/11/21 14:28:10;;;;;;;3.70;2.13;;;;;;;;;;5062892;28;20043;-88
2022/11/21 14:30:40;;;;;;;3.38;2.15;;;;;;;;;;5056460;28;20047;-84
2022/11/21 14:33:21;;;;;;;3.30;2.42;;;;;;;;;;5071082;28;20082;-88
2022/11/21 14:36:10;;;;;;;2.85;2.22;;;;;;;;;;5070533;28;20025;-87
2022/11/21 14:38:45;;;;;;;2.72;2.17;;;;;;;;;;5085843;28;20103;-87
2022/11/21 14:41:23;;;;;;;4.20;1.60;;;;;;;;;;5055598;28;20025;-84
2022/11/21 14:43:49;;;;;;;4.10;2.28;;;;;;;;;;5070508;28;20059;-86
2022/11/21 14:46:19;;;;;;;3.60;2.08;;;;;;;;;;5065571;28;20117;-87
2022/11/21 14:48:44;;;;;;;3.30;2.15;;;;;;;;;;5072629;28;20021;-88
2022/11/21 14:51:14;;;;;;;3.67;1.88;;;;;;;;;;5072041;28;20158;-86
2022/11/21 14:53:43;;;;;;;1.38;1.25;;;;;;;;;;5071331;28;20028;-83
2022/11/21 14:56:33;;;;;;;5.70;2.75;;;;;;;;;;5070941;28;20135;-83
2022/11/21 14:59:01;;;;;;;5.00;2.38;;;;;;;;;;5071709;28;20024;-86
2022/11/21 15:01:32;;;;;;;2.00;1.20;;;;;;;;;;5076719;28;20063;-85
2022/11/21 15:04:03;;;;;;;5.50;1.40;;;;;;;;;;5067898;28;20398;-84
2022/11/21 15:06:32;;;;;;;4.95;2.47;;;;;;;;;;5076369;28;20028;-82
2022/11/21 15:08:59;;;;;;;4.57;2.90;;;;;;;;;;5077602;28;20020;-82
2022/11/21 15:11:37;;;;;;;1.90;1.63;;;;;;;;;;5068871;28;20495;-84
2022/11/21 15:14:10;;;;;;;2.30;2.10;;;;;;;;;;5074347;28;20029;-83
2022/11/21 15:16:36;;;;;;;3.75;2.17;;;;;;;;;;5064986;28;20032;-85
2022/11/21 15:19:08;;;;;;;2.83;2.35;;;;;;;;;;5066274;28;20070;-85
2022/11/21 15:21:34;;;;;;;2.92;2.03;;;;;;;;;;5077115;28;20469;-85
2022/11/21 15:24:26;;;;;;;3.33;2.35;;;;;;;;;;5066999;28;20024;-85
2022/11/21 15:26:52;;;;;;;4.45;2.67;;;;;;;;;;5075412;28;20499;-85
2022/11/21 15:29:25;;;;;;;2.10;1.73;;;;;;;;;;5060338;28;20020;-86
2022/11/21 15:32:11;;;;;;;10.82;3.55;;;;;;;;;;5060689;28;20451;-85
2022/11/21 15:34:39;;;;;;;2.60;2.38;;;;;;;;;;5066059;28;20020;-86
2022/11/21 15:37:13;;;;;;;3.88;2.10;;;;;;;;;;5095014;28;20507;-84
2022/11/21 15:39:47;;;;;;;2.65;1.67;;;;;;;;;;5072403;28;20460;-85
2022/11/21 15:42:34;;;;;;;2.10;1.90;;;;;;;;;;5072799;28;20104;-86
2022/11/21 15:45:17;;;;;;;5.05;2.83;;;;;;;;;;5072643;28;20032;-88
2022/11/21 15:47:43;;;;;;;3.58;2.65;;;;;;;;;;5064592;28;20024;-82
2022/11/21 15:50:08;;;;;;;2.88;2.55;;;;;;;;;;5060120;28;20477;-84
2022/11/21 15:52:45;;;;;;;3.65;2.42;;;;;;;;;;5069763;28;20032;-83
2022/11/21 15:55:21;;;;;;;3.33;2.75;;;;;;;;;;5071146;28;20499;-83
2022/11/21 15:58:08;;;;;;;3.65;2.08;;;;;;;;;;5070750;28;20097;-83
2022/11/21 16:00:34;;;;;;;4.40;2.97;;;;;;;;;;5072600;28;20544;-83